Time;durP1;ratioP1;P1;durP2;ratioP2;P2;SDS_P1;SDS_P2;PMS_P1;PMS_P2;Temp;Humidity;BMP_temperature;BMP_pressure;BME280_temperature;BME280_humidity;BME280_pressure;Samples;Min_cycle;Max_cycle;Signal;HPM_P1;HPM_P2
2023/08/15 00:01:42;;;;;;;9.77;5.47;;;20.80;99.90;;;;;;4803485;29;20063;-51
2023/08/15 00:04:08;;;;;;;11.13;5.78;;;20.90;99.90;;;;;;4803272;29;20051;-54
2023/08/15 00:06:33;;;;;;;9.98;5.55;;;20.90;99.90;;;;;;4803551;29;20047;-50
2023/08/15 00:09:00;;;;;;;11.23;5.70;;;20.80;99.90;;;;;;4801433;29;20043;-51
2023/08/15 00:11:26;;;;;;;11.27;5.80;;;20.90;99.90;;;;;;4803718;29;20376;-51
2023/08/15 00:13:55;;;;;;;11.38;5.65;;;20.80;99.90;;;;;;4803228;29;20103;-50
2023/08/15 00:16:21;;;;;;;11.43;5.45;;;20.80;99.90;;;;;;4802493;29;20047;-50
2023/08/15 00:18:47;;;;;;;11.27;6.07;;;20.80;99.90;;;;;;4803167;29;20050;-53
2023/08/15 00:21:13;;;;;;;11.35;6.35;;;20.80;99.90;;;;;;4803057;29;20480;-49
2023/08/15 00:23:38;;;;;;;13.30;6.40;;;20.80;99.90;;;;;;4803067;29;20443;-48
2023/08/15 00:26:04;;;;;;;13.13;6.15;;;20.80;99.90;;;;;;4802056;29;20107;-52
2023/08/15 00:28:30;;;;;;;15.20;6.82;;;20.80;99.90;;;;;;4802996;29;20089;-51
2023/08/15 00:30:55;;;;;;;11.43;6.35;;;20.80;99.90;;;;;;4802816;29;20083;-51
2023/08/15 00:33:21;;;;;;;13.38;6.60;;;20.80;99.90;;;;;;4801457;29;20039;-52
2023/08/15 00:35:47;;;;;;;12.27;6.57;;;20.80;99.90;;;;;;4802969;29;20039;-49
2023/08/15 00:38:12;;;;;;;13.70;6.65;;;20.80;99.90;;;;;;4801212;29;20047;-49
2023/08/15 00:40:42;;;;;;;13.32;6.50;;;20.80;99.90;;;;;;4802873;29;20495;-52
2023/08/15 00:43:10;;;;;;;12.20;6.13;;;20.80;99.90;;;;;;4802122;29;20047;-49
2023/08/15 00:45:39;;;;;;;8.75;6.22;;;20.80;99.90;;;;;;4802525;29;20121;-49
2023/08/15 00:48:06;;;;;;;12.32;6.70;;;20.80;99.90;;;;;;4802396;29;20039;-51
2023/08/15 00:50:33;;;;;;;12.68;6.55;;;20.70;99.90;;;;;;4802596;29;20045;-52
2023/08/15 00:53:01;;;;;;;10.48;6.13;;;20.70;99.90;;;;;;4801285;29;20493;-49
2023/08/15 00:55:27;;;;;;;11.45;6.43;;;20.60;99.90;;;;;;4802495;29;20047;-53
2023/08/15 00:57:54;;;;;;;11.70;7.13;;;20.70;99.90;;;;;;4801665;29;20082;-52
2023/08/15 01:00:20;;;;;;;10.20;7.22;;;20.70;99.90;;;;;;4801818;29;20062;-50
2023/08/15 01:02:46;;;;;;;11.82;7.60;;;20.60;99.90;;;;;;4802504;29;20046;-54
2023/08/15 01:05:16;;;;;;;14.73;7.45;;;20.60;99.90;;;;;;4802589;29;20049;-52
2023/08/15 01:07:42;;;;;;;12.23;7.68;;;20.60;99.90;;;;;;4800857;29;20134;-50
2023/08/15 01:10:08;;;;;;;12.50;7.20;;;20.60;99.90;;;;;;4802625;29;20074;-50
2023/08/15 01:12:37;;;;;;;13.05;7.45;;;20.60;99.90;;;;;;4802794;29;20427;-53
2023/08/15 01:15:14;;;;;;;13.43;7.90;;;20.60;99.90;;;;;;4802122;29;20042;-52
2023/08/15 01:17:57;;;;;;;12.80;8.20;;;20.60;99.90;;;;;;4816264;29;20262;-51
2023/08/15 01:20:35;;;;;;;13.70;8.73;;;20.50;99.90;;;;;;4802768;29;20165;-50
2023/08/15 01:23:03;;;;;;;11.13;8.02;;;20.50;99.90;;;;;;4816444;29;20050;-51
2023/08/15 01:25:32;;;;;;;12.77;8.23;;;20.60;99.90;;;;;;4802029;29;20075;-50
2023/08/15 01:28:00;;;;;;;12.40;8.10;;;20.50;99.90;;;;;;4802692;29;20082;-51
2023/08/15 01:30:26;;;;;;;13.30;9.05;;;20.50;99.90;;;;;;4802031;29;20238;-49
2023/08/15 01:33:14;;;;;;;13.20;8.90;;;20.50;99.90;;;;;;4801712;29;20850;-51
2023/08/15 01:35:45;;;;;;;14.05;9.35;;;20.50;99.90;;;;;;4802480;29;20047;-53
2023/08/15 01:38:24;;;;;;;14.00;8.80;;;20.50;99.90;;;;;;4800277;29;20403;-51
2023/08/15 01:40:52;;;;;;;19.30;9.50;;;20.50;99.90;;;;;;4802247;29;20035;-52
2023/08/15 01:43:18;;;;;;;16.67;9.15;;;20.50;99.90;;;;;;4801990;29;20055;-53
2023/08/15 01:45:44;;;;;;;15.68;9.70;;;20.50;99.90;;;;;;4802056;29;20055;-53
2023/08/15 01:48:09;;;;;;;14.75;9.98;;;20.40;99.90;;;;;;4802140;29;20039;-51
2023/08/15 01:50:35;;;;;;;14.50;10.13;;;20.40;99.90;;;;;;4801719;29;20049;-51
2023/08/15 01:53:01;;;;;;;14.52;10.80;;;20.40;99.90;;;;;;4802209;29;20058;-51
2023/08/15 01:55:27;;;;;;;14.50;10.63;;;20.40;99.90;;;;;;4803541;29;20039;-50
2023/08/15 01:57:52;;;;;;;22.67;11.57;;;20.40;99.90;;;;;;4804540;29;20051;-50
2023/08/15 02:00:18;;;;;;;19.55;11.25;;;20.50;99.90;;;;;;4805217;29;20487;-49
2023/08/15 02:02:44;;;;;;;21.33;11.50;;;20.50;99.90;;;;;;4805136;29;20050;-53
2023/08/15 02:05:13;;;;;;;14.15;10.15;;;20.50;99.90;;;;;;4805583;29;20046;-49
2023/08/15 02:07:39;;;;;;;17.48;11.65;;;20.50;99.90;;;;;;4803000;29;20061;-51
2023/08/15 02:10:05;;;;;;;15.10;11.00;;;20.50;99.90;;;;;;4805109;29;20043;-49
2023/08/15 02:12:31;;;;;;;15.73;10.18;;;20.50;99.90;;;;;;4805399;29;20078;-53
2023/08/15 02:14:56;;;;;;;14.90;9.85;;;20.40;99.90;;;;;;4803675;29;20530;-52
2023/08/15 02:17:22;;;;;;;15.40;10.50;;;20.40;99.90;;;;;;4804991;29;20035;-50
2023/08/15 02:19:48;;;;;;;13.85;10.32;;;20.30;99.90;;;;;;4805492;29;20053;-51
2023/08/15 02:22:13;;;;;;;15.18;8.95;;;20.10;99.90;;;;;;4804755;29;20053;-51
2023/08/15 02:24:39;;;;;;;12.98;9.43;;;20.10;99.90;;;;;;4804610;29;20038;-54
2023/08/15 02:27:05;;;;;;;12.90;9.90;;;20.00;99.90;;;;;;4804900;29;20120;-51
2023/08/15 02:29:31;;;;;;;15.15;10.00;;;20.00;99.90;;;;;;4804822;29;20129;-51
2023/08/15 02:31:57;;;;;;;12.30;9.90;;;20.00;99.90;;;;;;4805055;29;20043;-52
2023/08/15 02:34:23;;;;;;;11.95;9.57;;;20.00;99.90;;;;;;4803621;29;20043;-52
2023/08/15 02:36:48;;;;;;;14.38;10.32;;;19.90;99.90;;;;;;4805073;29;20049;-51
2023/08/15 02:39:16;;;;;;;14.30;9.55;;;19.90;99.90;;;;;;4805023;29;20584;-53
2023/08/15 02:41:42;;;;;;;13.45;9.88;;;20.00;99.90;;;;;;4803628;29;20043;-51
2023/08/15 02:44:08;;;;;;;16.10;10.07;;;19.90;99.90;;;;;;4803790;29;20050;-50
2023/08/15 02:46:33;;;;;;;15.55;10.40;;;20.00;99.90;;;;;;4803053;29;20054;-53
2023/08/15 02:48:59;;;;;;;15.63;11.10;;;19.90;99.90;;;;;;4805578;29;20119;-52
2023/08/15 02:51:25;;;;;;;16.17;10.73;;;20.00;99.90;;;;;;4804524;29;20134;-52
2023/08/15 02:53:51;;;;;;;13.30;9.38;;;19.80;99.90;;;;;;4804402;29;20493;-51
2023/08/15 02:56:17;;;;;;;14.43;10.35;;;19.80;99.90;;;;;;4807215;29;20050;-52
2023/08/15 02:58:43;;;;;;;13.55;10.38;;;19.80;99.90;;;;;;4804395;29;20043;-48
2023/08/15 03:01:09;;;;;;;13.23;9.95;;;19.90;99.90;;;;;;4804045;29;20126;-52
2023/08/15 03:03:35;;;;;;;12.88;9.63;;;19.80;99.90;;;;;;4804189;29;20050;-52
2023/08/15 03:06:02;;;;;;;14.40;9.93;;;19.80;99.90;;;;;;4803150;29;20057;-53
2023/08/15 03:08:27;;;;;;;15.07;9.77;;;19.80;99.90;;;;;;4803209;29;20039;-54
2023/08/15 03:10:53;;;;;;;13.73;9.80;;;19.80;99.90;;;;;;4803277;29;20037;-50
2023/08/15 03:13:19;;;;;;;13.90;9.82;;;19.80;99.90;;;;;;4802146;29;20407;-52
2023/08/15 03:15:56;;;;;;;12.63;9.63;;;19.80;99.90;;;;;;4804542;29;20055;-51
2023/08/15 03:18:22;;;;;;;13.45;10.18;;;19.80;99.90;;;;;;4804263;29;20070;-51
2023/08/15 03:21:09;;;;;;;13.60;9.85;;;19.70;99.90;;;;;;4803917;29;20038;-50
2023/08/15 03:23:37;;;;;;;14.15;10.02;;;19.80;99.90;;;;;;4803930;29;20483;-51
2023/08/15 03:26:04;;;;;;;13.00;9.65;;;19.70;99.90;;;;;;4804121;29;20518;-52
2023/08/15 03:28:30;;;;;;;14.70;9.30;;;19.60;99.90;;;;;;4803848;29;20078;-53
2023/08/15 03:30:56;;;;;;;16.65;9.52;;;19.70;99.90;;;;;;4803836;29;20364;-51
2023/08/15 03:33:23;;;;;;;12.48;8.63;;;19.70;99.90;;;;;;4803615;29;20037;-53
2023/08/15 03:35:50;;;;;;;12.57;8.93;;;19.60;99.90;;;;;;4803839;29;20049;-53
2023/08/15 03:38:18;;;;;;;13.93;8.93;;;19.60;99.90;;;;;;4803470;29;20043;-50
2023/08/15 03:40:45;;;;;;;12.43;8.85;;;19.60;99.90;;;;;;4804072;29;20050;-51
2023/08/15 03:43:11;;;;;;;12.73;8.73;;;19.60;99.90;;;;;;4803646;29;20042;-54
2023/08/15 03:45:37;;;;;;;13.05;8.63;;;19.60;99.90;;;;;;4803605;29;20039;-49
2023/08/15 03:48:08;;;;;;;14.32;8.65;;;19.60;99.90;;;;;;4802938;29;20047;-53
2023/08/15 03:50:38;;;;;;;11.43;8.52;;;19.60;99.90;;;;;;4804203;29;20031;-53
2023/08/15 03:53:04;;;;;;;12.65;7.78;;;19.50;99.90;;;;;;4804182;29;20039;-50
2023/08/15 03:55:31;;;;;;;14.13;8.63;;;19.60;99.90;;;;;;4803839;29;20039;-53
2023/08/15 03:57:57;;;;;;;12.68;8.52;;;19.50;99.90;;;;;;4803756;29;20141;-51
2023/08/15 04:00:24;;;;;;;12.68;8.88;;;19.50;99.90;;;;;;4801583;29;20570;-50
2023/08/15 04:02:50;;;;;;;11.13;7.82;;;19.60;99.90;;;;;;4803560;29;20054;-50
2023/08/15 04:05:17;;;;;;;12.13;8.80;;;19.40;99.90;;;;;;4803514;29;20082;-51
2023/08/15 04:07:44;;;;;;;11.85;8.35;;;19.40;99.90;;;;;;4803157;29;20057;-52
2023/08/15 04:10:13;;;;;;;13.88;9.35;;;19.50;99.90;;;;;;4802982;29;20122;-53
2023/08/15 04:12:40;;;;;;;11.63;8.75;;;19.40;99.90;;;;;;4803462;29;20070;-53
2023/08/15 04:15:06;;;;;;;13.95;9.30;;;19.40;99.90;;;;;;4803127;29;20043;-52
2023/08/15 04:17:32;;;;;;;14.40;8.38;;;19.30;99.90;;;;;;4803083;29;20081;-50
2023/08/15 04:19:57;;;;;;;12.73;8.98;;;19.20;99.90;;;;;;4803015;29;20468;-51
2023/08/15 04:22:23;;;;;;;14.05;9.20;;;19.30;99.90;;;;;;4803045;29;20047;-51
2023/08/15 04:24:49;;;;;;;13.20;8.23;;;19.20;99.90;;;;;;4803476;29;20499;-51
2023/08/15 04:27:14;;;;;;;12.18;8.27;;;19.20;99.90;;;;;;4816642;29;20449;-52
2023/08/15 04:29:40;;;;;;;11.95;7.60;;;19.30;99.90;;;;;;4800675;29;20134;-53
2023/08/15 04:32:06;;;;;;;9.32;7.32;;;19.20;99.90;;;;;;4802545;29;20053;-50
2023/08/15 04:34:32;;;;;;;10.35;6.95;;;19.10;99.90;;;;;;4803024;29;20077;-49
2023/08/15 04:36:57;;;;;;;11.93;6.80;;;19.10;99.90;;;;;;4802809;29;20047;-52
2023/08/15 04:39:24;;;;;;;11.50;6.85;;;19.10;99.90;;;;;;4802876;29;20043;-52
2023/08/15 04:41:50;;;;;;;11.35;6.28;;;19.10;99.90;;;;;;4803018;29;20062;-52
2023/08/15 04:44:16;;;;;;;11.80;5.90;;;19.10;99.90;;;;;;4802271;29;20054;-51
2023/08/15 04:46:42;;;;;;;11.95;6.07;;;19.00;99.90;;;;;;4801514;29;20100;-51
2023/08/15 04:49:08;;;;;;;9.68;6.20;;;19.00;99.90;;;;;;4803406;29;20137;-51
2023/08/15 04:51:33;;;;;;;11.32;5.70;;;18.90;99.90;;;;;;4802336;29;20445;-51
2023/08/15 04:53:59;;;;;;;9.30;5.43;;;18.90;99.90;;;;;;4802494;29;20042;-54
2023/08/15 04:56:25;;;;;;;9.25;5.20;;;18.90;99.90;;;;;;4802595;29;20165;-53
2023/08/15 04:58:51;;;;;;;9.45;5.50;;;18.90;99.90;;;;;;4802775;29;20048;-53
2023/08/15 05:01:16;;;;;;;10.82;5.25;;;18.90;99.90;;;;;;4802068;29;20067;-50
2023/08/15 05:03:42;;;;;;;14.40;5.72;;;18.70;99.90;;;;;;4800302;29;20531;-51
2023/08/15 05:06:08;;;;;;;12.40;5.78;;;18.70;99.90;;;;;;4801116;29;20192;-53
2023/08/15 05:08:33;;;;;;;12.18;6.18;;;18.70;99.90;;;;;;4801639;29;20130;-51
2023/08/15 05:11:00;;;;;;;9.32;6.07;;;18.70;99.90;;;;;;4802540;29;20176;-52
2023/08/15 05:13:26;;;;;;;9.13;6.10;;;18.70;99.90;;;;;;4802304;29;20053;-51
2023/08/15 05:15:52;;;;;;;9.82;6.05;;;18.70;99.90;;;;;;4802763;29;20046;-51
2023/08/15 05:18:20;;;;;;;12.25;7.07;;;18.70;99.90;;;;;;4802143;29;20042;-50
2023/08/15 05:20:47;;;;;;;9.98;6.38;;;18.60;99.90;;;;;;4802107;29;20038;-52
2023/08/15 05:23:15;;;;;;;11.57;6.47;;;18.60;99.90;;;;;;4802072;29;20112;-50
2023/08/15 05:25:43;;;;;;;10.32;5.97;;;18.70;99.90;;;;;;4802435;29;20039;-51
2023/08/15 05:28:09;;;;;;;11.13;6.22;;;18.50;99.90;;;;;;4800150;29;20054;-53
2023/08/15 05:30:35;;;;;;;10.85;6.47;;;18.50;99.90;;;;;;4817090;29;20046;-53
2023/08/15 05:33:02;;;;;;;9.23;5.75;;;18.50;99.90;;;;;;4805835;29;20038;-49
2023/08/15 05:35:28;;;;;;;12.18;6.63;;;18.50;99.90;;;;;;4806169;29;20039;-51
2023/08/15 05:37:54;;;;;;;10.27;5.85;;;18.40;99.90;;;;;;4805458;29;20118;-52
2023/08/15 05:40:23;;;;;;;12.02;6.60;;;18.50;99.90;;;;;;4806120;29;20805;-51
2023/08/15 05:42:49;;;;;;;11.73;6.28;;;18.40;99.90;;;;;;4803821;29;20047;-51
2023/08/15 05:45:15;;;;;;;9.73;5.60;;;18.40;99.90;;;;;;4806160;29;20461;-52
2023/08/15 05:47:40;;;;;;;10.00;5.88;;;18.40;99.90;;;;;;4805720;29;20103;-51
2023/08/15 05:50:07;;;;;;;10.27;6.18;;;18.40;99.90;;;;;;4805631;29;20476;-52
2023/08/15 05:52:33;;;;;;;11.88;5.10;;;18.40;99.90;;;;;;4805093;29;20046;-51
2023/08/15 05:54:59;;;;;;;11.13;5.25;;;18.40;99.90;;;;;;4804398;29;20078;-52
2023/08/15 05:57:25;;;;;;;12.13;5.85;;;18.40;99.90;;;;;;4806000;29;20088;-48
2023/08/15 05:59:50;;;;;;;9.88;5.38;;;18.40;99.90;;;;;;4805118;29;20099;-50
2023/08/15 06:02:17;;;;;;;10.25;5.93;;;18.40;99.90;;;;;;4805356;29;20055;-52
2023/08/15 06:04:43;;;;;;;17.05;6.40;;;18.50;99.90;;;;;;4805647;29;20086;-50
2023/08/15 06:07:09;;;;;;;11.27;5.65;;;18.50;99.90;;;;;;4804747;29;20082;-50
2023/08/15 06:09:35;;;;;;;12.48;5.75;;;18.60;99.90;;;;;;4804418;29;20046;-51
2023/08/15 06:12:01;;;;;;;9.88;5.45;;;18.70;99.90;;;;;;4804970;29;20416;-52
2023/08/15 06:14:26;;;;;;;13.13;6.05;;;18.70;99.90;;;;;;4804928;29;20074;-52
2023/08/15 06:16:52;;;;;;;11.88;5.35;;;18.70;99.90;;;;;;4805360;29;20074;-53
2023/08/15 06:19:18;;;;;;;12.82;6.05;;;18.80;99.90;;;;;;4805449;29;20407;-50
2023/08/15 06:21:44;;;;;;;10.98;5.80;;;18.80;99.90;;;;;;4804607;29;20046;-53
2023/08/15 06:24:13;;;;;;;12.65;5.60;;;18.90;99.90;;;;;;4805231;29;20592;-51
2023/08/15 06:26:39;;;;;;;10.73;5.93;;;18.90;99.90;;;;;;4818774;29;20134;-50
2023/08/15 06:29:06;;;;;;;12.70;5.55;;;18.90;99.90;;;;;;4805256;29;20429;-53
2023/08/15 06:31:33;;;;;;;10.57;5.55;;;19.00;99.90;;;;;;4804295;29;20041;-52
2023/08/15 06:33:59;;;;;;;14.77;6.38;;;19.00;99.90;;;;;;4805379;29;20413;-53
2023/08/15 06:36:25;;;;;;;12.68;6.10;;;19.10;99.90;;;;;;4804615;29;20051;-50
2023/08/15 06:38:51;;;;;;;14.68;5.72;;;19.00;99.90;;;;;;4804888;29;20039;-53
2023/08/15 06:41:17;;;;;;;12.30;6.38;;;19.10;99.90;;;;;;4804448;29;20092;-52
2023/08/15 06:43:46;;;;;;;11.10;6.18;;;19.10;99.90;;;;;;4805323;29;20096;-51
2023/08/15 06:46:12;;;;;;;15.95;6.35;;;19.30;99.90;;;;;;4803861;29;20487;-51
2023/08/15 06:48:38;;;;;;;13.30;5.82;;;19.30;99.90;;;;;;4805011;29;20042;-50
2023/08/15 06:51:04;;;;;;;12.82;5.32;;;19.40;99.90;;;;;;4804445;29;20062;-50
2023/08/15 06:53:33;;;;;;;14.63;5.82;;;19.60;99.90;;;;;;4802239;29;20148;-51
2023/08/15 06:55:59;;;;;;;12.73;5.45;;;19.60;99.90;;;;;;4802136;29;20155;-51
2023/08/15 06:58:25;;;;;;;13.80;5.60;;;19.70;99.90;;;;;;4804677;29;20122;-52
2023/08/15 07:00:51;;;;;;;12.27;5.45;;;19.80;99.90;;;;;;4804333;29;20574;-51
2023/08/15 07:03:18;;;;;;;11.48;5.03;;;19.80;99.90;;;;;;4817738;29;20095;-52
2023/08/15 07:05:45;;;;;;;12.52;5.00;;;19.90;99.90;;;;;;4804254;29;20054;-51
2023/08/15 07:08:13;;;;;;;12.10;4.80;;;20.10;99.90;;;;;;4804662;29;20582;-54
2023/08/15 07:10:39;;;;;;;12.10;5.05;;;20.00;99.90;;;;;;4804544;29;20043;-52
2023/08/15 07:13:05;;;;;;;14.07;5.13;;;20.10;99.90;;;;;;4804773;29;20058;-50
2023/08/15 07:15:31;;;;;;;15.00;6.13;;;20.20;99.90;;;;;;4804023;29;20054;-52
2023/08/15 07:17:57;;;;;;;12.20;5.50;;;20.20;99.90;;;;;;4804355;29;20047;-51
2023/08/15 07:20:23;;;;;;;13.27;5.80;;;20.30;99.90;;;;;;4804183;29;20082;-52
2023/08/15 07:22:49;;;;;;;15.75;5.50;;;20.20;99.90;;;;;;4803471;29;20480;-52
2023/08/15 07:25:15;;;;;;;15.57;5.50;;;20.30;99.90;;;;;;4804384;29;20042;-51
2023/08/15 07:27:41;;;;;;;13.18;5.40;;;20.40;99.90;;;;;;4803700;29;20057;-64
2023/08/15 07:30:08;;;;;;;13.43;5.38;;;20.30;99.90;;;;;;4802656;29;20176;-50
2023/08/15 07:32:37;;;;;;;13.02;5.45;;;20.50;99.90;;;;;;4803873;29;20071;-51
2023/08/15 07:35:04;;;;;;;14.88;5.60;;;20.40;99.90;;;;;;4804507;29;20042;-50
2023/08/15 07:37:30;;;;;;;14.60;5.78;;;20.50;99.90;;;;;;4803989;29;20054;-54
2023/08/15 07:40:09;;;;;;;15.73;5.72;;;20.50;99.90;;;;;;4803598;29;20050;-51
2023/08/15 07:42:35;;;;;;;15.25;5.85;;;20.60;99.90;;;;;;4802711;29;20129;-53
2023/08/15 07:45:02;;;;;;;12.75;5.88;;;20.60;99.90;;;;;;4803251;29;20050;-52
2023/08/15 07:47:28;;;;;;;11.23;5.47;;;20.60;99.90;;;;;;4803768;29;20382;-51
2023/08/15 07:50:26;;;;;;;13.00;6.60;;;20.70;99.90;;;;;;4803961;29;20034;-54
2023/08/15 07:52:52;;;;;;;14.40;7.25;;;20.90;99.90;;;;;;4800975;29;20043;-52
2023/08/15 07:55:19;;;;;;;13.02;7.55;;;21.00;99.90;;;;;;4802599;29;20392;-53
2023/08/15 07:57:45;;;;;;;12.65;6.63;;;20.90;99.90;;;;;;4803290;29;20074;-51
2023/08/15 08:00:12;;;;;;;15.68;7.32;;;21.10;99.90;;;;;;4803213;29;20058;-50
2023/08/15 08:02:40;;;;;;;14.43;7.25;;;21.10;99.90;;;;;;4803397;29;20145;-50
2023/08/15 08:05:07;;;;;;;10.23;6.20;;;21.20;99.90;;;;;;4802375;29;20503;-52
2023/08/15 08:07:39;;;;;;;14.85;6.93;;;21.10;99.90;;;;;;4803447;29;20502;-51
2023/08/15 08:10:06;;;;;;;11.15;5.63;;;21.10;99.90;;;;;;4803605;29;20099;-51
2023/08/15 08:12:31;;;;;;;11.38;5.40;;;21.20;99.90;;;;;;4803490;29;20084;-51
2023/08/15 08:14:57;;;;;;;12.82;5.53;;;21.20;99.90;;;;;;4803110;29;20038;-52
2023/08/15 08:17:23;;;;;;;11.95;4.90;;;21.30;99.90;;;;;;4803241;29;20046;-53
2023/08/15 08:19:49;;;;;;;9.23;4.55;;;21.30;99.90;;;;;;4803106;29;20053;-51
2023/08/15 08:22:15;;;;;;;12.07;4.88;;;21.30;99.90;;;;;;4802744;29;20047;-51
2023/08/15 08:24:41;;;;;;;13.25;4.00;;;21.20;99.90;;;;;;4803305;29;20047;-51
2023/08/15 08:27:07;;;;;;;12.10;3.90;;;21.20;99.90;;;;;;4816994;29;20419;-53
2023/08/15 08:29:32;;;;;;;9.60;3.30;;;21.20;99.90;;;;;;4801791;29;20521;-51
2023/08/15 08:31:58;;;;;;;8.57;3.53;;;21.30;99.90;;;;;;4803020;29;20116;-53
2023/08/15 08:34:24;;;;;;;8.10;2.92;;;21.40;99.90;;;;;;4803366;29;20054;-52
2023/08/15 08:36:50;;;;;;;9.77;3.38;;;21.50;99.90;;;;;;4802417;29;20046;-51
2023/08/15 08:39:15;;;;;;;8.10;3.35;;;21.60;99.90;;;;;;4803508;29;20050;-52
2023/08/15 08:41:41;;;;;;;8.65;3.38;;;21.70;99.90;;;;;;4816868;29;20057;-51
2023/08/15 08:44:10;;;;;;;10.18;3.00;;;21.80;99.90;;;;;;4802594;29;20372;-52
2023/08/15 08:46:36;;;;;;;9.43;2.50;;;22.00;99.90;;;;;;4801846;29;20387;-52
2023/08/15 08:49:04;;;;;;;7.95;2.20;;;22.00;99.90;;;;;;4802609;29;20041;-49
2023/08/15 08:51:32;;;;;;;9.48;3.00;;;22.20;99.90;;;;;;4801629;29;20061;-51
2023/08/15 08:53:58;;;;;;;8.27;2.60;;;22.20;99.90;;;;;;4801996;29;20074;-53
2023/08/15 08:56:29;;;;;;;8.48;2.60;;;22.30;99.90;;;;;;4802751;29;20053;-52
2023/08/15 08:59:10;;;;;;;9.90;2.60;;;22.30;99.90;;;;;;4802584;29;20050;-53
2023/08/15 09:01:37;;;;;;;7.32;2.25;;;22.30;99.90;;;;;;4816274;29;20057;-53
2023/08/15 09:04:03;;;;;;;7.18;2.60;;;22.30;99.90;;;;;;4802693;29;20046;-53
2023/08/15 09:06:29;;;;;;;13.88;2.92;;;22.30;99.90;;;;;;4801941;29;20053;-49
2023/08/15 09:08:58;;;;;;;9.48;2.75;;;22.30;99.90;;;;;;4802240;29;20971;-52
2023/08/15 09:11:35;;;;;;;9.85;2.90;;;22.30;99.90;;;;;;4803103;29;20039;-51
2023/08/15 09:14:04;;;;;;;9.25;2.90;;;22.30;99.90;;;;;;4802804;29;20046;-50
2023/08/15 09:16:33;;;;;;;12.10;3.67;;;22.30;99.90;;;;;;4816340;29;20043;-52
2023/08/15 09:19:02;;;;;;;8.63;3.40;;;22.20;99.90;;;;;;4802153;29;20057;-51
2023/08/15 09:21:29;;;;;;;8.27;3.15;;;22.20;99.90;;;;;;4801512;29;20130;-53
2023/08/15 09:23:57;;;;;;;8.02;2.78;;;22.20;99.90;;;;;;4800254;29;20043;-51
2023/08/15 09:26:23;;;;;;;9.68;2.78;;;22.30;99.90;;;;;;4802284;29;20054;-51
2023/08/15 09:28:49;;;;;;;11.32;2.70;;;22.20;99.90;;;;;;4802437;29;20058;-51
2023/08/15 09:31:15;;;;;;;8.18;2.75;;;22.30;99.90;;;;;;4802152;29;20827;-52
2023/08/15 09:33:42;;;;;;;7.60;2.63;;;22.40;99.90;;;;;;4802513;29;20043;-52
2023/08/15 09:36:09;;;;;;;10.02;2.67;;;22.40;99.90;;;;;;4802050;29;20084;-52
2023/08/15 09:38:39;;;;;;;9.52;2.60;;;22.30;99.90;;;;;;4801538;29;20462;-53
2023/08/15 09:41:05;;;;;;;8.40;2.40;;;22.40;99.90;;;;;;4802595;29;20053;-52
2023/08/15 09:43:32;;;;;;;10.70;2.88;;;22.50;99.90;;;;;;4802671;29;20065;-52
2023/08/15 09:45:59;;;;;;;6.82;2.05;;;22.60;99.90;;;;;;4801883;29;20045;-51
2023/08/15 09:48:29;;;;;;;8.02;2.15;;;22.60;99.90;;;;;;4802237;29;20129;-52
2023/08/15 09:50:56;;;;;;;6.63;1.90;;;22.70;99.90;;;;;;4802161;29;20057;-51
2023/08/15 09:53:25;;;;;;;8.27;2.33;;;22.90;99.90;;;;;;4801242;29;20051;-52
2023/08/15 09:55:51;;;;;;;8.20;2.60;;;23.00;99.90;;;;;;4802389;29;20429;-51
2023/08/15 09:58:18;;;;;;;8.13;2.60;;;23.00;99.90;;;;;;4802202;29;20034;-53
2023/08/15 10:00:50;;;;;;;7.72;2.55;;;23.10;99.90;;;;;;4800580;29;20058;-53
2023/08/15 10:03:22;;;;;;;7.50;2.50;;;23.40;99.90;;;;;;4802300;29;20046;-53
2023/08/15 10:05:53;;;;;;;7.45;2.50;;;23.40;99.90;;;;;;4802084;29;20057;-51
2023/08/15 10:08:20;;;;;;;8.20;2.60;;;23.30;99.90;;;;;;4799469;29;20603;-54
2023/08/15 10:10:50;;;;;;;9.15;2.83;;;23.20;99.90;;;;;;4802610;29;20049;-51
2023/08/15 10:13:22;;;;;;;10.23;2.65;;;23.20;99.90;;;;;;4802268;29;20038;-51
2023/08/15 10:15:48;;;;;;;11.13;2.83;;;23.10;99.90;;;;;;4801267;29;20083;-51
2023/08/15 10:18:14;;;;;;;9.32;2.85;;;23.10;99.90;;;;;;4805565;29;20145;-53
2023/08/15 10:20:40;;;;;;;11.60;2.88;;;23.00;99.90;;;;;;4805134;29;20458;-52
2023/08/15 10:23:10;;;;;;;9.02;3.03;;;22.90;99.90;;;;;;4804827;29;20046;-51
2023/08/15 10:25:38;;;;;;;8.63;2.83;;;22.80;99.90;;;;;;4803133;29;20396;-52
2023/08/15 10:28:09;;;;;;;8.60;2.78;;;22.60;99.90;;;;;;4818794;29;20473;-51
2023/08/15 10:30:40;;;;;;;8.90;2.85;;;22.60;99.90;;;;;;4804950;29;20082;-53
2023/08/15 10:33:15;;;;;;;6.65;2.60;;;22.70;99.90;;;;;;4803948;29;20046;-52
2023/08/15 10:35:51;;;;;;;9.43;2.70;;;22.80;99.90;;;;;;4805148;29;20071;-54
2023/08/15 10:38:20;;;;;;;12.82;3.67;;;22.90;99.90;;;;;;4804359;29;20414;-52
2023/08/15 10:40:46;;;;;;;9.82;2.88;;;22.90;99.90;;;;;;4805204;29;20047;-53
2023/08/15 10:43:15;;;;;;;10.75;3.28;;;22.90;99.90;;;;;;4802892;29;20049;-51
2023/08/15 10:45:42;;;;;;;9.63;2.92;;;22.90;99.90;;;;;;4805228;29;20376;-51
2023/08/15 10:48:09;;;;;;;11.45;3.47;;;22.70;99.90;;;;;;4804789;29;20047;-52
2023/08/15 10:50:41;;;;;;;15.07;5.15;;;22.60;99.90;;;;;;4804611;29;20043;-51
2023/08/15 10:53:07;;;;;;;13.65;4.78;;;22.50;99.90;;;;;;4803111;29;20043;-51
2023/08/15 10:55:37;;;;;;;17.00;5.50;;;22.40;99.90;;;;;;4804888;29;20058;-50
2023/08/15 10:58:06;;;;;;;13.05;4.88;;;22.40;99.90;;;;;;4805300;29;20498;-51
2023/08/15 11:00:33;;;;;;;14.98;4.72;;;22.50;99.90;;;;;;4804186;29;20051;-49
2023/08/15 11:02:59;;;;;;;14.57;4.93;;;22.60;99.90;;;;;;4804637;29;20046;-48
2023/08/15 11:05:25;;;;;;;10.45;4.00;;;22.70;99.90;;;;;;4801740;29;20054;-50
2023/08/15 11:07:51;;;;;;;13.00;4.10;;;22.70;99.90;;;;;;4801691;29;20551;-50
2023/08/15 11:10:17;;;;;;;7.30;4.00;;;22.60;99.90;;;;;;4804376;29;20522;-53
2023/08/15 11:12:48;;;;;;;15.75;5.47;;;22.50;99.90;;;;;;4805241;29;20037;-51
2023/08/15 11:15:14;;;;;;;12.02;4.53;;;22.50;99.90;;;;;;4804267;29;20074;-53
2023/08/15 11:17:44;;;;;;;11.90;4.25;;;22.50;99.90;;;;;;4818461;29;20498;-50
2023/08/15 11:20:10;;;;;;;12.50;5.88;;;22.50;99.90;;;;;;4803039;29;20047;-50
2023/08/15 11:22:36;;;;;;;14.40;5.18;;;22.60;99.90;;;;;;4787110;29;20043;-51
2023/08/15 11:25:02;;;;;;;11.63;4.63;;;22.50;99.90;;;;;;4804205;29;20046;-53
2023/08/15 11:27:28;;;;;;;11.00;5.00;;;22.60;99.90;;;;;;4802223;29;20086;-50
2023/08/15 11:29:58;;;;;;;10.00;4.80;;;22.70;99.90;;;;;;4802659;29;20085;-53
2023/08/15 11:32:24;;;;;;;13.35;4.95;;;22.60;99.90;;;;;;4803396;29;20054;-50
2023/08/15 11:34:50;;;;;;;11.93;4.82;;;22.70;99.90;;;;;;4804325;29;20043;-52
2023/08/15 11:37:17;;;;;;;10.52;4.53;;;22.60;99.90;;;;;;4802642;29;20112;-51
2023/08/15 11:39:50;;;;;;;12.90;4.70;;;22.50;99.90;;;;;;4804758;29;20499;-52
2023/08/15 11:42:16;;;;;;;13.07;5.25;;;22.30;99.90;;;;;;4804295;29;20038;-52
2023/08/15 11:44:41;;;;;;;12.35;5.55;;;22.30;99.90;;;;;;4803907;29;20105;-48
2023/08/15 11:47:07;;;;;;;9.73;4.40;;;22.10;99.90;;;;;;4803831;29;20055;-51
2023/08/15 11:49:33;;;;;;;11.73;4.30;;;22.30;99.90;;;;;;4803578;29;20054;-49
2023/08/15 11:52:03;;;;;;;9.77;4.00;;;22.30;99.90;;;;;;4802462;29;20120;-51
2023/08/15 11:54:29;;;;;;;10.32;3.78;;;22.10;99.90;;;;;;4803958;29;20495;-50
2023/08/15 11:56:54;;;;;;;9.85;3.92;;;22.20;99.90;;;;;;4803780;29;20038;-51
2023/08/15 11:59:20;;;;;;;10.32;4.05;;;22.10;99.90;;;;;;4803133;29;20051;-53
2023/08/15 12:01:47;;;;;;;9.73;3.65;;;21.90;99.90;;;;;;4802755;29;20366;-50
2023/08/15 12:04:15;;;;;;;11.70;4.30;;;21.80;99.90;;;;;;4803550;29;20480;-52
2023/08/15 12:06:40;;;;;;;12.07;4.35;;;21.70;99.90;;;;;;4801358;29;20122;-49
2023/08/15 12:09:07;;;;;;;11.68;4.60;;;21.70;99.90;;;;;;4803542;29;20191;-52
2023/08/15 12:11:36;;;;;;;10.48;3.78;;;21.70;99.90;;;;;;4803455;29;20042;-53
2023/08/15 12:14:03;;;;;;;9.85;4.82;;;21.70;99.90;;;;;;4803230;29;20051;-49
2023/08/15 12:16:29;;;;;;;13.02;5.25;;;21.70;99.90;;;;;;4801844;29;20057;-52
2023/08/15 12:18:55;;;;;;;9.45;4.40;;;21.80;99.90;;;;;;4803112;29;20042;-49
2023/08/15 12:21:21;;;;;;;8.73;4.78;;;21.90;99.90;;;;;;4802802;29;20086;-50
2023/08/15 12:23:46;;;;;;;13.75;5.07;;;22.00;99.90;;;;;;4803319;29;20145;-51
2023/08/15 12:26:12;;;;;;;8.73;4.55;;;22.20;99.90;;;;;;4802719;29;20050;-52
2023/08/15 12:28:38;;;;;;;12.93;5.22;;;22.10;99.90;;;;;;4803179;29;20038;-49
2023/08/15 12:31:04;;;;;;;10.43;4.95;;;22.10;99.90;;;;;;4802607;29;20034;-52
2023/08/15 12:33:33;;;;;;;8.77;5.13;;;22.20;99.90;;;;;;4803836;29;20501;-51
2023/08/15 12:36:00;;;;;;;12.27;4.90;;;22.20;99.90;;;;;;4801120;29;20156;-49
2023/08/15 12:38:26;;;;;;;9.98;4.65;;;22.30;99.90;;;;;;4802673;29;20479;-50